createdAt,value
2019-03-20T00:00:05.929Z,1025.54
2019-03-20T00:01:07.839Z,1025.48
2019-03-20T00:02:05.931Z,1025.43
2019-03-20T00:03:05.904Z,1025.46
2019-03-20T00:04:05.888Z,1025.44
2019-03-20T00:05:05.876Z,1025.50
2019-03-20T00:06:05.867Z,1025.53
2019-03-20T00:07:05.880Z,1025.52
2019-03-20T00:08:05.873Z,1025.57
2019-03-20T00:09:05.836Z,1025.56
2019-03-20T00:10:05.822Z,1025.51
2019-03-20T00:11:05.811Z,1025.51
2019-03-20T00:12:05.809Z,1025.53
2019-03-20T00:13:05.827Z,1025.54
2019-03-20T00:14:05.796Z,1025.60
2019-03-20T00:15:05.774Z,1025.59
2019-03-20T00:16:05.766Z,1025.62
2019-03-20T00:17:05.749Z,1025.64
2019-03-20T00:18:05.741Z,1025.62
2019-03-20T00:19:05.762Z,1025.66
2019-03-20T00:20:05.719Z,1025.64
2019-03-20T00:21:05.738Z,1025.66
2019-03-20T00:22:05.700Z,1025.65
2019-03-20T00:23:05.690Z,1025.64
2019-03-20T00:24:05.696Z,1025.62
2019-03-20T00:25:05.742Z,1025.59
2019-03-20T00:26:05.654Z,1025.62
2019-03-20T00:27:05.661Z,1025.64
2019-03-20T00:28:05.653Z,1025.65
2019-03-20T00:29:05.645Z,1025.62
2019-03-20T00:30:05.614Z,1025.65
2019-03-20T00:31:05.605Z,1025.64
2019-03-20T00:32:05.593Z,1025.64
2019-03-20T00:33:05.586Z,1025.60
2019-03-20T00:34:05.601Z,1025.61
2019-03-20T00:35:05.567Z,1025.70
2019-03-20T00:36:05.551Z,1025.68
2019-03-20T00:37:05.545Z,1025.65
2019-03-20T00:38:05.532Z,1025.64
2019-03-20T00:39:05.520Z,1025.65
2019-03-20T00:40:05.541Z,1025.60
2019-03-20T00:41:05.498Z,1025.60
2019-03-20T00:42:05.494Z,1025.61
2019-03-20T00:43:05.485Z,1025.62
2019-03-20T00:44:05.467Z,1025.64
2019-03-20T00:45:05.460Z,1025.69
2019-03-20T00:46:05.470Z,1025.70
2019-03-20T00:47:05.435Z,1025.69
2019-03-20T00:48:05.426Z,1025.69
2019-03-20T00:49:05.414Z,1025.70
2019-03-20T00:50:05.404Z,1025.69
2019-03-20T00:51:05.416Z,1025.69
2019-03-20T00:52:05.393Z,1025.71
2019-03-20T00:53:05.374Z,1025.71
2019-03-20T00:54:05.362Z,1025.66
2019-03-20T00:55:05.351Z,1025.67
2019-03-20T00:56:05.360Z,1025.64
2019-03-20T00:57:05.330Z,1025.64
2019-03-20T00:58:05.324Z,1025.63
2019-03-20T00:59:05.307Z,1025.63
2019-03-20T01:00:05.297Z,1025.64
2019-03-20T01:01:05.318Z,1025.66
2019-03-20T01:02:05.276Z,1025.66
2019-03-20T01:03:05.269Z,1025.64
2019-03-20T01:04:05.255Z,1025.66
2019-03-20T01:05:12.456Z,1025.61
2019-03-20T01:06:06.254Z,1025.63
2019-03-20T01:07:05.223Z,1025.65
2019-03-20T01:08:05.249Z,1025.68
2019-03-20T01:09:05.204Z,1025.63
2019-03-20T01:10:05.199Z,1025.64
2019-03-20T01:11:05.182Z,1025.61
2019-03-20T01:12:05.226Z,1025.59
2019-03-20T01:13:05.162Z,1025.58
2019-03-20T01:14:05.152Z,1025.61
2019-03-20T01:15:05.144Z,1025.68
2019-03-20T01:16:05.150Z,1025.67
2019-03-20T01:17:05.144Z,1025.67
2019-03-20T01:18:05.108Z,1025.62
2019-03-20T01:19:05.140Z,1025.67
2019-03-20T01:20:05.090Z,1025.62
2019-03-20T01:21:05.083Z,1025.63
2019-03-20T01:22:05.106Z,1025.66
2019-03-20T01:23:05.059Z,1025.66
2019-03-20T01:24:05.045Z,1025.70
2019-03-20T01:25:05.068Z,1025.70
2019-03-20T01:26:05.024Z,1025.69
2019-03-20T01:27:05.013Z,1025.72
2019-03-20T01:28:05.025Z,1025.65
2019-03-20T01:29:04.995Z,1025.66
2019-03-20T01:30:04.980Z,1025.61
2019-03-20T01:31:04.997Z,1025.60
2019-03-20T01:32:04.965Z,1025.64
2019-03-20T01:33:04.951Z,1025.68
2019-03-20T01:34:04.945Z,1025.68
2019-03-20T01:35:04.934Z,1025.66
2019-03-20T01:36:04.940Z,1025.67
2019-03-20T01:37:04.913Z,1025.69
2019-03-20T01:38:04.900Z,1025.64
2019-03-20T01:39:04.923Z,1025.68
2019-03-20T01:40:04.882Z,1025.66
2019-03-20T01:41:04.869Z,1025.72
2019-03-20T01:42:04.890Z,1025.66
2019-03-20T01:43:04.880Z,1025.66
2019-03-20T01:44:04.836Z,1025.66
2019-03-20T01:45:04.854Z,1025.63
2019-03-20T01:46:04.815Z,1025.60
2019-03-20T01:47:06.828Z,1025.63
2019-03-20T01:48:04.823Z,1025.63
2019-03-20T01:49:04.785Z,1025.63
2019-03-20T01:50:04.778Z,1025.71
2019-03-20T01:51:04.764Z,1025.68
2019-03-20T01:52:04.753Z,1025.71
2019-03-20T01:53:04.835Z,1025.70
2019-03-20T01:54:04.729Z,1025.69
2019-03-20T01:55:04.718Z,1025.72
2019-03-20T01:56:04.708Z,1025.65
2019-03-20T01:57:04.770Z,1025.69
2019-03-20T01:58:04.685Z,1025.71
2019-03-20T01:59:04.701Z,1025.75
2019-03-20T02:00:04.671Z,1025.76
2019-03-20T02:01:04.654Z,1025.78
2019-03-20T02:02:04.656Z,1025.73
2019-03-20T02:03:04.640Z,1025.72
2019-03-20T02:04:04.663Z,1025.73
2019-03-20T02:05:04.616Z,1025.75
2019-03-20T02:06:04.606Z,1025.72
2019-03-20T02:07:04.592Z,1025.72
2019-03-20T02:08:04.594Z,1025.75
2019-03-20T02:09:04.575Z,1025.77
2019-03-20T02:10:04.587Z,1025.72
2019-03-20T02:11:04.556Z,1025.79
2019-03-20T02:12:04.543Z,1025.79
2019-03-20T02:13:04.537Z,1025.81
2019-03-20T02:14:04.520Z,1025.81
2019-03-20T02:15:04.534Z,1025.79
2019-03-20T02:16:04.512Z,1025.80
2019-03-20T02:17:04.492Z,1025.81
2019-03-20T02:18:04.480Z,1025.81
2019-03-20T02:19:04.464Z,1025.80
2019-03-20T02:20:04.482Z,1025.85
2019-03-20T02:21:04.449Z,1025.86
2019-03-20T02:22:04.439Z,1025.84
2019-03-20T02:23:04.426Z,1025.85
2019-03-20T02:24:04.421Z,1025.88
2019-03-20T02:25:04.426Z,1025.89
2019-03-20T02:26:04.394Z,1025.88
2019-03-20T02:27:04.379Z,1025.87
2019-03-20T02:28:04.378Z,1025.85
2019-03-20T02:29:04.364Z,1025.86
2019-03-20T02:30:04.391Z,1025.88
2019-03-20T02:31:04.351Z,1025.86
2019-03-20T02:32:04.332Z,1025.83
2019-03-20T02:33:04.334Z,1025.88
2019-03-20T02:34:04.322Z,1025.85
2019-03-20T02:35:04.303Z,1025.87
2019-03-20T02:36:04.317Z,1025.87
2019-03-20T02:37:04.279Z,1025.85
2019-03-20T02:38:04.262Z,1025.84
2019-03-20T02:39:04.251Z,1025.86
2019-03-20T02:40:04.247Z,1025.85
2019-03-20T02:41:04.240Z,1025.89
2019-03-20T02:42:04.255Z,1025.87
2019-03-20T02:43:04.216Z,1025.87
2019-03-20T02:44:04.202Z,1025.86
2019-03-20T02:45:04.189Z,1025.83
2019-03-20T02:46:04.213Z,1025.83
2019-03-20T02:47:04.192Z,1025.81
2019-03-20T02:48:04.176Z,1025.82
2019-03-20T02:49:04.157Z,1025.81
2019-03-20T02:50:04.146Z,1025.84
2019-03-20T02:51:04.144Z,1025.80
2019-03-20T02:52:04.386Z,1025.82
2019-03-20T02:53:04.112Z,1025.80
2019-03-20T02:54:04.099Z,1025.86
2019-03-20T02:55:04.089Z,1025.90
2019-03-20T02:56:04.071Z,1025.91
2019-03-20T02:57:04.092Z,1025.89
2019-03-20T02:58:04.054Z,1025.90
2019-03-20T02:59:04.046Z,1025.91
2019-03-20T03:00:04.044Z,1025.97
2019-03-20T03:01:04.024Z,1026.05
2019-03-20T03:02:04.019Z,1025.96
2019-03-20T03:03:04.028Z,1025.99
2019-03-20T03:04:04.045Z,1026.06
2019-03-20T03:05:03.978Z,1025.99
2019-03-20T03:06:06.987Z,1025.97
2019-03-20T03:07:03.983Z,1025.98
2019-03-20T03:08:03.985Z,1026.07
2019-03-20T03:09:03.934Z,1026.04
2019-03-20T03:10:03.926Z,1026.03
2019-03-20T03:11:03.913Z,1026.11
2019-03-20T03:12:03.915Z,1026.08
2019-03-20T03:13:03.906Z,1026.12
2019-03-20T03:14:03.910Z,1026.05
2019-03-20T03:15:03.878Z,1026.08
2019-03-20T03:16:03.870Z,1026.09
2019-03-20T03:17:03.881Z,1026.07
2019-03-20T03:18:03.840Z,1026.07
2019-03-20T03:19:03.836Z,1026.08
2019-03-20T03:20:03.823Z,1026.03
2019-03-20T03:21:03.812Z,1026.07
2019-03-20T03:22:03.800Z,1026.10
2019-03-20T03:23:03.822Z,1026.08
2019-03-20T03:24:03.782Z,1026.13
2019-03-20T03:25:03.780Z,1026.11
2019-03-20T03:26:03.761Z,1026.09
2019-03-20T03:27:03.758Z,1026.08
2019-03-20T03:28:03.751Z,1026.12
2019-03-20T03:29:03.755Z,1026.05
2019-03-20T03:30:03.711Z,1026.09
2019-03-20T03:31:03.740Z,1026.06
2019-03-20T03:32:03.698Z,1026.06
2019-03-20T03:33:03.712Z,1026.02
2019-03-20T03:34:03.774Z,1026.05
2019-03-20T03:35:03.708Z,1026.09
2019-03-20T03:36:03.660Z,1026.00
2019-03-20T03:37:03.668Z,1026.01
2019-03-20T03:38:03.633Z,1026.06
2019-03-20T03:39:03.647Z,1026.08
2019-03-20T03:40:03.612Z,1026.07
2019-03-20T03:41:03.595Z,1026.11
2019-03-20T03:42:03.615Z,1026.09
2019-03-20T03:43:03.582Z,1026.10
2019-03-20T03:44:03.609Z,1026.14
2019-03-20T03:45:03.565Z,1026.14
2019-03-20T03:46:03.547Z,1026.15
2019-03-20T03:47:03.538Z,1026.18
2019-03-20T03:48:03.549Z,1026.13
2019-03-20T03:49:03.511Z,1026.19
2019-03-20T03:50:03.508Z,1026.16
2019-03-20T03:51:03.520Z,1026.20
2019-03-20T03:52:03.486Z,1026.20
2019-03-20T03:53:03.481Z,1026.17
2019-03-20T03:54:03.468Z,1026.18
2019-03-20T03:55:03.443Z,1026.21
2019-03-20T03:56:03.439Z,1026.20
2019-03-20T03:57:03.458Z,1026.25
2019-03-20T03:58:03.424Z,1026.25
2019-03-20T03:59:04.293Z,1026.22
2019-03-20T04:00:03.411Z,1026.29
2019-03-20T04:01:03.397Z,1026.26
2019-03-20T04:02:03.396Z,1026.21
2019-03-20T04:03:03.410Z,1026.21
2019-03-20T04:04:03.363Z,1026.19
2019-03-20T04:05:03.371Z,1026.18
2019-03-20T04:06:03.335Z,1026.20
2019-03-20T04:07:03.353Z,1026.24
2019-03-20T04:08:03.309Z,1026.24
2019-03-20T04:09:03.302Z,1026.23
2019-03-20T04:10:03.638Z,1026.25
2019-03-20T04:11:03.289Z,1026.27
2019-03-20T04:12:03.265Z,1026.28
2019-03-20T04:13:03.283Z,1026.33
2019-03-20T04:14:03.243Z,1026.34
2019-03-20T04:15:03.235Z,1026.32
2019-03-20T04:16:03.230Z,1026.36
2019-03-20T04:17:03.222Z,1026.34
2019-03-20T04:18:03.217Z,1026.40
2019-03-20T04:19:03.217Z,1026.40
2019-03-20T04:20:03.189Z,1026.38
2019-03-20T04:21:03.260Z,1026.37
2019-03-20T04:22:03.193Z,1026.37
2019-03-20T04:23:03.180Z,1026.36
2019-03-20T04:24:03.144Z,1026.43
2019-03-20T04:25:03.133Z,1026.45
2019-03-20T04:26:03.118Z,1026.45
2019-03-20T04:27:03.111Z,1026.42
2019-03-20T04:28:03.111Z,1026.41
2019-03-20T04:29:03.137Z,1026.39
2019-03-20T04:30:03.080Z,1026.39
2019-03-20T04:31:03.068Z,1026.37
2019-03-20T04:32:03.052Z,1026.40
2019-03-20T04:33:03.045Z,1026.44
2019-03-20T04:34:03.029Z,1026.43
2019-03-20T04:35:03.050Z,1026.48
2019-03-20T04:36:03.016Z,1026.47
2019-03-20T04:37:03.005Z,1026.51
2019-03-20T04:38:03.006Z,1026.50
2019-03-20T04:39:02.988Z,1026.51
2019-03-20T04:40:02.969Z,1026.47
2019-03-20T04:41:02.979Z,1026.50
2019-03-20T04:42:02.970Z,1026.46
2019-03-20T04:43:02.945Z,1026.46
2019-03-20T04:44:02.923Z,1026.49
2019-03-20T04:45:02.916Z,1026.46
2019-03-20T04:46:02.929Z,1026.48
2019-03-20T04:47:02.894Z,1026.48
2019-03-20T04:48:02.891Z,1026.45
2019-03-20T04:49:02.875Z,1026.44
2019-03-20T04:50:02.869Z,1026.48
2019-03-20T04:51:02.887Z,1026.47
2019-03-20T04:52:02.838Z,1026.50
2019-03-20T04:53:02.832Z,1026.53
2019-03-20T04:54:02.822Z,1026.55
2019-03-20T04:55:02.809Z,1026.52
2019-03-20T04:56:02.805Z,1026.49
2019-03-20T04:57:02.825Z,1026.52
2019-03-20T04:58:02.776Z,1026.52
2019-03-20T04:59:03.025Z,1026.51
2019-03-20T05:00:02.763Z,1026.51
2019-03-20T05:01:02.799Z,1026.55
2019-03-20T05:02:02.741Z,1026.55
2019-03-20T05:03:02.766Z,1026.57
2019-03-20T05:04:02.714Z,1026.61
2019-03-20T05:05:02.703Z,1026.58
2019-03-20T05:06:02.695Z,1026.60
2019-03-20T05:07:03.290Z,1026.59
2019-03-20T05:08:02.698Z,1026.55
2019-03-20T05:09:02.670Z,1026.59
2019-03-20T05:10:02.656Z,1026.59
2019-03-20T05:11:02.645Z,1026.60
2019-03-20T05:12:02.628Z,1026.62
2019-03-20T05:13:02.638Z,1026.63
2019-03-20T05:14:02.632Z,1026.63
2019-03-20T05:15:02.602Z,1026.66
2019-03-20T05:16:02.590Z,1026.67
2019-03-20T05:17:02.576Z,1026.65
2019-03-20T05:18:02.565Z,1026.65
2019-03-20T05:19:02.577Z,1026.60
2019-03-20T05:20:02.558Z,1026.59
2019-03-20T05:21:02.564Z,1026.58
2019-03-20T05:22:02.529Z,1026.55
2019-03-20T05:23:02.518Z,1026.53
2019-03-20T05:24:02.502Z,1026.54
2019-03-20T05:25:02.492Z,1026.57
2019-03-20T05:26:02.514Z,1026.64
2019-03-20T05:27:02.489Z,1026.60
2019-03-20T05:28:02.478Z,1026.64
2019-03-20T05:29:02.457Z,1026.74
2019-03-20T05:30:02.440Z,1026.75
2019-03-20T05:31:02.429Z,1026.77
2019-03-20T05:32:02.453Z,1026.79
2019-03-20T05:33:02.419Z,1026.80
2019-03-20T05:34:02.410Z,1026.79
2019-03-20T05:35:02.393Z,1026.76
2019-03-20T05:36:02.371Z,1026.75
2019-03-20T05:37:10.369Z,1026.75
2019-03-20T05:38:03.379Z,1026.77
2019-03-20T05:39:02.354Z,1026.77
2019-03-20T05:40:02.353Z,1026.84
2019-03-20T05:41:02.329Z,1026.95
2019-03-20T05:42:02.316Z,1026.92
2019-03-20T05:43:02.326Z,1026.93
2019-03-20T05:44:02.290Z,1026.89
2019-03-20T05:45:02.284Z,1026.84
2019-03-20T05:46:02.274Z,1026.86
2019-03-20T05:47:02.269Z,1026.89
2019-03-20T05:48:02.283Z,1026.87
2019-03-20T05:49:02.235Z,1026.86
2019-03-20T05:50:02.226Z,1026.93
2019-03-20T05:51:02.215Z,1026.93
2019-03-20T05:52:02.211Z,1026.92
2019-03-20T05:53:02.231Z,1026.95
2019-03-20T05:54:02.191Z,1026.92
2019-03-20T05:55:02.179Z,1026.93
2019-03-20T05:56:02.169Z,1026.95
2019-03-20T05:57:02.158Z,1026.93
2019-03-20T05:58:02.140Z,1026.93
2019-03-20T05:59:02.335Z,1026.96
2019-03-20T06:00:02.157Z,1026.93
2019-03-20T06:01:02.114Z,1026.99
2019-03-20T06:02:02.098Z,1027.00
2019-03-20T06:03:02.096Z,1026.99
2019-03-20T06:04:02.109Z,1027.00
2019-03-20T06:05:02.073Z,1026.95
2019-03-20T06:06:02.078Z,1026.91
2019-03-20T06:07:02.057Z,1026.90
2019-03-20T06:08:02.033Z,1026.93
2019-03-20T06:09:02.058Z,1026.90
2019-03-20T06:10:02.037Z,1026.92
2019-03-20T06:11:02.029Z,1026.91
2019-03-20T06:12:01.998Z,1026.91
2019-03-20T06:13:01.988Z,1026.93
2019-03-20T06:14:01.977Z,1026.91
2019-03-20T06:15:01.989Z,1026.96
2019-03-20T06:16:04.803Z,1026.94
2019-03-20T06:17:01.963Z,1026.94
2019-03-20T06:18:01.940Z,1026.97
2019-03-20T06:19:01.929Z,1026.97
2019-03-20T06:20:01.912Z,1026.99
2019-03-20T06:21:01.900Z,1027.00
2019-03-20T06:22:01.905Z,1027.01
2019-03-20T06:23:01.874Z,1026.96
2019-03-20T06:24:01.869Z,1027.01
2019-03-20T06:25:01.864Z,1026.99
2019-03-20T06:26:01.850Z,1026.98
2019-03-20T06:27:01.870Z,1027.04
2019-03-20T06:28:01.822Z,1027.03
2019-03-20T06:29:01.821Z,1027.04
2019-03-20T06:30:01.804Z,1027.09
2019-03-20T06:31:01.792Z,1027.08
2019-03-20T06:32:01.823Z,1027.08
2019-03-20T06:33:01.815Z,1027.13
2019-03-20T06:34:01.757Z,1027.17
2019-03-20T06:35:01.747Z,1027.20
2019-03-20T06:36:01.745Z,1027.26
2019-03-20T06:37:01.732Z,1027.21
2019-03-20T06:38:01.751Z,1027.25
2019-03-20T06:39:01.757Z,1027.23
2019-03-20T06:40:01.706Z,1027.22
2019-03-20T06:41:01.700Z,1027.22
2019-03-20T06:42:01.683Z,1027.20
2019-03-20T06:43:01.694Z,1027.19
2019-03-20T06:44:01.657Z,1027.22
2019-03-20T06:45:01.667Z,1027.25
2019-03-20T06:46:01.901Z,1027.25
2019-03-20T06:47:02.219Z,1027.28
2019-03-20T06:48:01.687Z,1027.31
2019-03-20T06:49:01.601Z,1027.33
2019-03-20T06:50:01.601Z,1027.32
2019-03-20T06:51:01.586Z,1027.30
2019-03-20T06:52:01.571Z,1027.31
2019-03-20T06:53:01.558Z,1027.31
2019-03-20T06:54:01.597Z,1027.33
2019-03-20T06:55:01.612Z,1027.33
2019-03-20T06:56:01.550Z,1027.35
2019-03-20T06:57:01.537Z,1027.32
2019-03-20T06:58:01.516Z,1027.34
2019-03-20T06:59:01.520Z,1027.35
2019-03-20T07:00:01.488Z,1027.36
2019-03-20T07:01:01.475Z,1027.38
2019-03-20T07:02:01.463Z,1027.37
2019-03-20T07:03:01.471Z,1027.44
2019-03-20T07:04:01.491Z,1027.44
2019-03-20T07:05:01.445Z,1027.43
2019-03-20T07:06:01.426Z,1027.44
2019-03-20T07:07:01.410Z,1027.47
2019-03-20T07:08:01.411Z,1027.42
2019-03-20T07:09:01.400Z,1027.40
2019-03-20T07:10:01.407Z,1027.43
2019-03-20T07:11:01.377Z,1027.41
2019-03-20T07:12:01.365Z,1027.43
2019-03-20T07:13:01.353Z,1027.47
2019-03-20T07:14:01.367Z,1027.47
2019-03-20T07:15:01.335Z,1027.44
2019-03-20T07:16:01.323Z,1027.47
2019-03-20T07:17:01.330Z,1027.42
2019-03-20T07:18:01.293Z,1027.42
2019-03-20T07:19:01.313Z,1027.41
2019-03-20T07:20:01.276Z,1027.43
2019-03-20T07:21:01.270Z,1027.41
2019-03-20T07:22:01.256Z,1027.45
2019-03-20T07:23:01.240Z,1027.50
2019-03-20T07:24:01.238Z,1027.49
2019-03-20T07:25:01.258Z,1027.51
2019-03-20T07:26:01.215Z,1027.53
2019-03-20T07:27:01.201Z,1027.54
2019-03-20T07:28:01.200Z,1027.48
2019-03-20T07:29:01.186Z,1027.51
2019-03-20T07:30:01.163Z,1027.51
2019-03-20T07:31:01.240Z,1027.53
2019-03-20T07:32:01.187Z,1027.52
2019-03-20T07:33:01.136Z,1027.54
2019-03-20T07:34:01.127Z,1027.53
2019-03-20T07:35:01.152Z,1027.58
2019-03-20T07:36:01.100Z,1027.55
2019-03-20T07:37:01.115Z,1027.59
2019-03-20T07:38:01.089Z,1027.52
2019-03-20T07:39:01.078Z,1027.59
2019-03-20T07:40:01.081Z,1027.51
2019-03-20T07:41:01.045Z,1027.46
2019-03-20T07:42:01.053Z,1027.52
2019-03-20T07:43:08.891Z,1027.48
2019-03-20T07:44:01.018Z,1027.45
2019-03-20T07:45:01.029Z,1027.47
2019-03-20T07:46:01.364Z,1027.49
2019-03-20T07:47:00.985Z,1027.45
2019-03-20T07:48:00.970Z,1027.46
2019-03-20T07:49:00.959Z,1027.50
2019-03-20T07:50:00.949Z,1027.46
2019-03-20T07:51:00.937Z,1027.47
2019-03-20T07:52:00.964Z,1027.48
2019-03-20T07:53:00.921Z,1027.47
2019-03-20T07:54:00.905Z,1027.51
2019-03-20T07:55:00.894Z,1027.51
2019-03-20T07:56:00.890Z,1027.55
2019-03-20T07:57:00.884Z,1027.55
2019-03-20T07:58:00.901Z,1027.53
2019-03-20T07:59:00.866Z,1027.54
2019-03-20T08:00:00.840Z,1027.52
2019-03-20T08:01:00.829Z,1027.55
2019-03-20T08:02:00.852Z,1027.59
2019-03-20T08:03:00.810Z,1027.60
2019-03-20T08:04:00.829Z,1027.60
2019-03-20T08:05:00.797Z,1027.64
2019-03-20T08:06:00.790Z,1027.67
2019-03-20T08:07:00.773Z,1027.71
2019-03-20T08:08:07.115Z,1027.73
2019-03-20T08:09:01.777Z,1027.71
2019-03-20T08:10:00.744Z,1027.69
2019-03-20T08:11:00.731Z,1027.68
2019-03-20T08:12:00.714Z,1027.66
2019-03-20T08:13:00.752Z,1027.69
2019-03-20T08:14:00.689Z,1027.68
2019-03-20T08:15:00.710Z,1027.70
2019-03-20T08:16:00.676Z,1027.70
2019-03-20T08:17:00.666Z,1027.67
2019-03-20T08:18:00.656Z,1027.66
2019-03-20T08:19:00.682Z,1027.63
2019-03-20T08:20:00.669Z,1027.63
2019-03-20T08:21:00.621Z,1027.61
2019-03-20T08:22:00.618Z,1027.57
2019-03-20T08:23:00.598Z,1027.66
2019-03-20T08:24:00.619Z,1027.64
2019-03-20T08:25:00.582Z,1027.66
2019-03-20T08:26:00.562Z,1027.68
2019-03-20T08:27:00.559Z,1027.74
2019-03-20T08:28:00.552Z,1027.64
2019-03-20T08:29:00.550Z,1027.69
2019-03-20T08:30:00.551Z,1027.67
2019-03-20T08:31:00.515Z,1027.66
2019-03-20T08:32:00.508Z,1027.69
2019-03-20T08:33:00.491Z,1027.71
2019-03-20T08:34:00.482Z,1027.72
2019-03-20T08:35:00.507Z,1027.74
2019-03-20T08:36:00.465Z,1027.68
2019-03-20T08:37:02.363Z,1027.74
2019-03-20T08:38:00.442Z,1027.76
2019-03-20T08:39:00.432Z,1027.68
2019-03-20T08:40:00.413Z,1027.71
2019-03-20T08:41:00.436Z,1027.75
2019-03-20T08:42:00.427Z,1027.70
2019-03-20T08:43:00.413Z,1027.67
2019-03-20T08:44:00.370Z,1027.73
2019-03-20T08:45:00.444Z,1027.65
2019-03-20T08:46:00.350Z,1027.65
2019-03-20T08:47:00.337Z,1027.70
2019-03-20T08:48:00.355Z,1027.69
2019-03-20T08:49:00.325Z,1027.66
2019-03-20T08:50:00.362Z,1027.68
2019-03-20T08:51:00.335Z,1027.70
2019-03-20T08:52:00.323Z,1027.69
2019-03-20T08:53:00.277Z,1027.65
2019-03-20T08:54:00.264Z,1027.68
2019-03-20T08:55:00.344Z,1027.63
2019-03-20T08:56:00.252Z,1027.67
2019-03-20T08:57:00.316Z,1027.68
2019-03-20T08:58:00.231Z,1027.73
2019-03-20T08:59:00.217Z,1027.66
2019-03-20T09:00:00.350Z,1027.61
2019-03-20T09:01:00.191Z,1027.67
2019-03-20T09:02:00.183Z,1027.70
2019-03-20T09:03:00.194Z,1027.70
2019-03-20T09:04:00.157Z,1027.73
2019-03-20T09:05:00.341Z,1027.79
2019-03-20T09:06:00.134Z,1027.80
2019-03-20T09:07:00.125Z,1027.97
2019-03-20T09:08:00.138Z,1028.09
2019-03-20T09:09:00.113Z,1028.08
2019-03-20T09:10:00.100Z,1028.04
2019-03-20T09:11:00.093Z,1028.14
2019-03-20T09:12:00.068Z,1028.11
2019-03-20T09:13:00.078Z,1028.12
2019-03-20T09:14:00.059Z,1028.17
2019-03-20T09:15:00.055Z,1028.29
2019-03-20T09:16:00.029Z,1028.22
2019-03-20T09:17:00.021Z,1028.34
2019-03-20T09:18:00.026Z,1028.31
2019-03-20T09:18:59.996Z,1028.35
2019-03-20T09:19:59.991Z,1028.37
2019-03-20T09:20:59.983Z,1028.43
2019-03-20T09:21:59.982Z,1028.43
2019-03-20T09:22:59.980Z,1028.37
2019-03-20T09:23:59.948Z,1028.42
2019-03-20T09:24:59.934Z,1028.42
2019-03-20T09:25:59.927Z,1028.47
2019-03-20T09:26:59.917Z,1028.44
2019-03-20T09:27:59.929Z,1028.43
2019-03-20T09:28:59.898Z,1028.46
2019-03-20T09:29:59.881Z,1028.49
2019-03-20T09:30:59.875Z,1028.64
2019-03-20T09:31:59.865Z,1028.48
2019-03-20T09:32:59.887Z,1028.58
2019-03-20T09:33:59.933Z,1028.61
2019-03-20T09:34:59.836Z,1028.59
2019-03-20T09:35:59.823Z,1028.62
2019-03-20T09:36:59.812Z,1028.55
2019-03-20T09:37:59.822Z,1028.56
2019-03-20T09:38:59.789Z,1028.62
2019-03-20T09:39:59.810Z,1028.51
2019-03-20T09:40:59.820Z,1028.56
2019-03-20T09:41:59.767Z,1028.58
2019-03-20T09:42:59.762Z,1028.56
2019-03-20T09:43:59.740Z,1028.57
2019-03-20T09:44:59.765Z,1028.57
2019-03-20T09:45:59.731Z,1028.59
2019-03-20T09:46:59.731Z,1028.53
2019-03-20T09:47:59.701Z,1028.52
2019-03-20T09:48:59.691Z,1028.52
2019-03-20T09:49:59.684Z,1028.47
2019-03-20T09:50:59.701Z,1028.45
2019-03-20T09:51:59.671Z,1028.44
2019-03-20T09:52:59.662Z,1028.45
2019-03-20T09:53:59.658Z,1028.50
2019-03-20T09:54:59.639Z,1028.48
2019-03-20T09:55:59.657Z,1028.41
2019-03-20T09:56:59.619Z,1028.48
2019-03-20T09:57:59.603Z,1028.45
2019-03-20T09:58:59.595Z,1028.46
2019-03-20T09:59:59.592Z,1028.49
2019-03-20T10:00:59.582Z,1028.44
2019-03-20T10:01:59.613Z,1028.44
2019-03-20T10:02:59.556Z,1028.39
2019-03-20T10:03:59.555Z,1028.43
2019-03-20T10:04:59.542Z,1028.48
2019-03-20T10:05:59.537Z,1028.52
2019-03-20T10:06:59.547Z,1028.47
2019-03-20T10:07:59.512Z,1028.47
2019-03-20T10:09:01.906Z,1028.44
2019-03-20T10:09:59.489Z,1028.30
2019-03-20T10:10:59.485Z,1028.24
2019-03-20T10:11:59.495Z,1028.20
2019-03-20T10:12:59.465Z,1028.14
2019-03-20T10:13:59.457Z,1028.17
2019-03-20T10:14:59.450Z,1028.15
2019-03-20T10:15:59.430Z,1028.15
2019-03-20T10:16:59.468Z,1028.21
2019-03-20T10:17:59.416Z,1028.23
2019-03-20T10:18:59.406Z,1028.26
2019-03-20T10:19:59.390Z,1028.17
2019-03-20T10:20:59.386Z,1028.19
2019-03-20T10:21:59.369Z,1028.04
2019-03-20T10:22:59.381Z,1028.10
2019-03-20T10:23:59.358Z,1027.99
2019-03-20T10:24:59.355Z,1027.98
2019-03-20T10:25:59.339Z,1027.85
2019-03-20T10:26:59.331Z,1027.84
2019-03-20T10:27:59.331Z,1027.79
2019-03-20T10:28:59.299Z,1027.72
2019-03-20T10:29:59.293Z,1027.80
2019-03-20T10:30:59.282Z,1027.69
2019-03-20T10:31:59.275Z,1027.70
2019-03-20T10:32:59.300Z,1027.66
2019-03-20T10:33:59.250Z,1027.59
2019-03-20T10:34:59.238Z,1027.55
2019-03-20T10:35:59.237Z,1027.57
2019-03-20T10:36:59.230Z,1027.62
2019-03-20T10:37:59.220Z,1027.66
2019-03-20T10:39:06.515Z,1027.67
2019-03-20T10:40:00.229Z,1027.63
2019-03-20T10:40:59.179Z,1027.60
2019-03-20T10:41:59.171Z,1027.62
2019-03-20T10:42:59.171Z,1027.66
2019-03-20T10:43:59.188Z,1027.65
2019-03-20T10:44:59.142Z,1027.68
2019-03-20T10:45:59.135Z,1027.67
2019-03-20T10:46:59.212Z,1027.71
2019-03-20T10:47:59.109Z,1027.80
2019-03-20T10:48:59.097Z,1027.79
2019-03-20T10:49:59.119Z,1027.75
2019-03-20T10:50:59.080Z,1027.82
2019-03-20T10:51:59.068Z,1027.81
2019-03-20T10:52:59.059Z,1027.79
2019-03-20T10:53:59.064Z,1027.81
2019-03-20T10:54:59.032Z,1027.79
2019-03-20T10:55:59.025Z,1027.78
2019-03-20T10:56:59.015Z,1027.84
2019-03-20T10:57:59.014Z,1027.80
2019-03-20T10:58:59.024Z,1027.79
2019-03-20T10:59:58.982Z,1027.74
2019-03-20T11:00:58.971Z,1027.75
2019-03-20T11:02:00.834Z,1027.83
2019-03-20T11:02:58.951Z,1027.71
2019-03-20T11:03:58.947Z,1027.81
2019-03-20T11:04:58.953Z,1027.77
2019-03-20T11:05:58.923Z,1027.91
2019-03-20T11:06:58.906Z,1027.78
2019-03-20T11:07:58.911Z,1027.75
2019-03-20T11:08:58.892Z,1027.77
2019-03-20T11:09:58.906Z,1027.75
2019-03-20T11:10:58.876Z,1027.73
2019-03-20T11:11:58.851Z,1027.69
2019-03-20T11:12:58.838Z,1027.68
2019-03-20T11:13:58.831Z,1027.71
2019-03-20T11:14:58.842Z,1027.75
2019-03-20T11:15:58.812Z,1027.72
2019-03-20T11:16:58.807Z,1027.76
2019-03-20T11:17:58.814Z,1027.68
2019-03-20T11:18:58.787Z,1027.60
2019-03-20T11:19:59.354Z,1027.62
2019-03-20T11:20:58.752Z,1027.64
2019-03-20T11:21:58.749Z,1027.59
2019-03-20T11:22:58.757Z,1027.58
2019-03-20T11:23:58.721Z,1027.64
2019-03-20T11:24:58.733Z,1027.65
2019-03-20T11:26:00.021Z,1027.72
2019-03-20T11:26:58.689Z,1027.67
2019-03-20T11:27:58.689Z,1027.63
2019-03-20T11:28:58.675Z,1027.60
2019-03-20T11:29:58.667Z,1027.59
2019-03-20T11:30:58.676Z,1027.62
2019-03-20T11:31:58.643Z,1027.56
2019-03-20T11:32:58.721Z,1027.53
2019-03-20T11:33:58.614Z,1027.52
2019-03-20T11:34:58.605Z,1027.60
2019-03-20T11:35:58.634Z,1027.57
2019-03-20T11:36:58.595Z,1027.66
2019-03-20T11:37:58.581Z,1027.51
2019-03-20T11:38:58.562Z,1027.48
2019-03-20T11:39:58.563Z,1027.53
2019-03-20T11:40:58.576Z,1027.48
2019-03-20T11:41:58.538Z,1027.48
2019-03-20T11:42:58.526Z,1027.58
2019-03-20T11:43:58.509Z,1027.47
2019-03-20T11:44:58.506Z,1027.58
2019-03-20T11:45:58.490Z,1027.48
2019-03-20T11:46:58.512Z,1027.52
2019-03-20T11:47:58.472Z,1027.57
2019-03-20T11:48:58.460Z,1027.50
2019-03-20T11:49:58.453Z,1027.46
2019-03-20T11:50:58.444Z,1027.50
2019-03-20T11:51:58.421Z,1027.47
2019-03-20T11:52:58.431Z,1027.51
2019-03-20T11:53:58.406Z,1027.53
2019-03-20T11:54:58.424Z,1027.44
2019-03-20T11:55:58.378Z,1027.42
2019-03-20T11:56:58.370Z,1027.33
2019-03-20T11:57:58.380Z,1027.53
2019-03-20T11:58:58.356Z,1027.47
2019-03-20T11:59:58.347Z,1027.43
2019-03-20T12:00:58.333Z,1027.42
2019-03-20T12:01:58.323Z,1027.46
2019-03-20T12:02:58.336Z,1027.55
2019-03-20T12:03:58.295Z,1027.47
2019-03-20T12:04:58.282Z,1027.50